createdAt,value
2024-04-02T00:01:09.452Z,45.74
2024-04-02T00:03:35.773Z,45.75
2024-04-02T00:06:02.105Z,45.68
2024-04-02T00:08:28.418Z,45.76
2024-04-02T00:10:54.764Z,45.74
2024-04-02T00:13:21.107Z,45.94
2024-04-02T00:15:47.449Z,45.98
2024-04-02T00:18:13.794Z,46.03
2024-04-02T00:20:40.083Z,46.06
2024-04-02T00:23:06.436Z,46.18
2024-04-02T00:25:32.738Z,46.31
2024-04-02T00:27:59.044Z,46.19
2024-04-02T00:30:25.366Z,46.28
2024-04-02T00:32:51.683Z,46.23
2024-04-02T00:35:18.004Z,46.31
2024-04-02T00:37:44.315Z,46.43
2024-04-02T00:40:10.667Z,46.37
2024-04-02T00:42:36.962Z,46.47
2024-04-02T00:45:03.301Z,46.36
2024-04-02T00:47:29.614Z,46.29
2024-04-02T00:49:55.919Z,46.04
2024-04-02T00:52:22.279Z,45.92
2024-04-02T00:54:48.600Z,45.89
2024-04-02T00:57:14.946Z,45.90
2024-04-02T00:59:41.275Z,45.62
2024-04-02T01:02:07.595Z,45.71
2024-04-02T01:04:33.900Z,45.67
2024-04-02T01:07:00.218Z,45.65
2024-04-02T01:09:26.525Z,45.60
2024-04-02T01:11:52.858Z,45.65
2024-04-02T01:14:19.192Z,45.62
2024-04-02T01:16:45.510Z,45.66
2024-04-02T01:19:11.839Z,45.67
2024-04-02T01:21:38.142Z,45.66
2024-04-02T01:24:04.495Z,45.66
2024-04-02T01:26:30.793Z,45.75
2024-04-02T01:28:57.113Z,45.74
2024-04-02T01:31:23.459Z,45.86
2024-04-02T01:33:49.792Z,45.88
2024-04-02T01:36:16.099Z,46.01
2024-04-02T01:38:42.436Z,46.01
2024-04-02T01:41:08.775Z,45.92
2024-04-02T01:43:35.394Z,45.96
2024-04-02T01:46:01.695Z,45.88
2024-04-02T01:48:28.020Z,45.81
2024-04-02T01:50:54.351Z,45.59
2024-04-02T01:53:20.674Z,45.62
2024-04-02T01:55:47.000Z,45.59
2024-04-02T01:58:13.323Z,45.64
2024-04-02T02:00:39.640Z,45.49
2024-04-02T02:03:05.959Z,45.26
2024-04-02T02:05:32.268Z,45.21
2024-04-02T02:07:58.619Z,44.88
2024-04-02T02:10:24.927Z,44.72
2024-04-02T02:12:51.266Z,44.60
2024-04-02T02:15:17.598Z,44.77
2024-04-02T02:17:43.908Z,45.14
2024-04-02T02:20:10.260Z,45.28
2024-04-02T02:22:36.574Z,45.34
2024-04-02T02:25:02.916Z,45.36
2024-04-02T02:27:29.259Z,45.39
2024-04-02T02:29:55.605Z,45.29
2024-04-02T02:32:21.916Z,45.38
2024-04-02T02:34:48.231Z,45.48
2024-04-02T02:37:14.578Z,45.65
2024-04-02T02:39:40.894Z,45.72
2024-04-02T02:42:07.214Z,45.91
2024-04-02T02:44:33.537Z,45.86
2024-04-02T02:46:59.871Z,46.11
2024-04-02T02:49:26.173Z,46.22
2024-04-02T02:51:52.496Z,46.28
2024-04-02T02:54:18.804Z,46.75
2024-04-02T02:56:45.142Z,47.37
2024-04-02T02:59:11.440Z,47.26
2024-04-02T03:01:37.752Z,46.93
2024-04-02T03:04:04.116Z,47.02
2024-04-02T03:06:30.458Z,46.96
2024-04-02T03:08:56.755Z,46.96
2024-04-02T03:11:23.073Z,47.10
2024-04-02T03:13:49.401Z,47.20
2024-04-02T03:16:15.751Z,47.33
2024-04-02T03:18:42.093Z,47.32
2024-04-02T03:21:08.405Z,47.54
2024-04-02T03:23:34.868Z,47.76
2024-04-02T03:26:01.230Z,47.85
2024-04-02T03:28:27.537Z,47.85
2024-04-02T03:30:53.858Z,47.97
2024-04-02T03:33:20.199Z,47.90
2024-04-02T03:35:46.514Z,48.19
2024-04-02T03:38:12.815Z,48.27
2024-04-02T03:40:39.139Z,48.45
2024-04-02T03:43:05.447Z,48.62
2024-04-02T03:45:31.744Z,49.07
2024-04-02T03:47:58.063Z,49.21
2024-04-02T03:50:24.378Z,49.63
2024-04-02T03:52:50.684Z,49.56
2024-04-02T03:55:19.850Z,50.02
2024-04-02T03:57:46.517Z,50.23
2024-04-02T04:00:12.852Z,51.24
2024-04-02T04:02:39.163Z,52.05
2024-04-02T04:05:05.465Z,52.59
2024-04-02T04:07:31.794Z,53.05
2024-04-02T04:09:58.112Z,53.56
2024-04-02T04:12:24.445Z,54.37
2024-04-02T04:14:50.768Z,55.01
2024-04-02T04:17:17.093Z,54.93
2024-04-02T04:19:43.423Z,55.04
2024-04-02T04:22:09.716Z,55.89
2024-04-02T04:24:36.031Z,56.01
2024-04-02T04:27:02.359Z,56.04
2024-04-02T04:29:28.677Z,56.58
2024-04-02T04:31:54.990Z,57.84
2024-04-02T04:34:21.296Z,59.42
2024-04-02T04:36:47.604Z,59.70
2024-04-02T04:39:13.908Z,59.79
2024-04-02T04:41:40.203Z,59.91
2024-04-02T04:44:06.492Z,61.79
2024-04-02T04:46:33.938Z,63.38
2024-04-02T04:49:00.869Z,64.19
2024-04-02T04:51:27.186Z,65.26
2024-04-02T04:53:53.507Z,65.76
2024-04-02T04:56:19.938Z,65.84
2024-04-02T04:58:46.358Z,65.44
2024-04-02T05:01:12.665Z,65.73
2024-04-02T05:03:38.997Z,65.94
2024-04-02T05:06:05.324Z,66.28
2024-04-02T05:08:31.643Z,66.09
2024-04-02T05:10:57.963Z,66.76
2024-04-02T05:13:24.280Z,66.24
2024-04-02T05:15:50.607Z,66.60
2024-04-02T05:18:16.935Z,66.87
2024-04-02T05:20:43.237Z,67.41
2024-04-02T05:23:09.589Z,67.18
2024-04-02T05:25:35.907Z,68.07
2024-04-02T05:28:02.281Z,69.96
2024-04-02T05:30:28.593Z,70.19
2024-04-02T05:32:54.905Z,70.79
2024-04-02T05:35:21.278Z,70.00
2024-04-02T05:37:47.595Z,69.25
2024-04-02T05:40:19.732Z,69.59
2024-04-02T05:42:46.067Z,69.60
2024-04-02T05:45:12.410Z,69.91
2024-04-02T05:47:38.741Z,69.13
2024-04-02T05:50:05.071Z,69.74
2024-04-02T05:52:31.384Z,69.72
2024-04-02T05:54:57.675Z,70.54
2024-04-02T05:57:23.984Z,70.69
2024-04-02T05:59:50.320Z,70.60
2024-04-02T06:02:16.656Z,71.03
2024-04-02T06:04:42.985Z,71.09
2024-04-02T06:07:09.313Z,70.96
2024-04-02T06:09:35.607Z,70.70
2024-04-02T06:12:01.923Z,69.94
2024-04-02T06:14:28.252Z,70.82
2024-04-02T06:16:54.548Z,70.13
2024-04-02T06:19:20.907Z,70.76
2024-04-02T06:21:47.244Z,71.07
2024-04-02T06:24:13.572Z,70.97
2024-04-02T06:26:39.887Z,70.44
2024-04-02T06:29:06.201Z,70.82
2024-04-02T06:31:32.532Z,70.50
2024-04-02T06:33:58.901Z,70.21
2024-04-02T06:36:25.246Z,70.24
2024-04-02T06:38:51.607Z,69.98
2024-04-02T06:41:17.924Z,69.63
2024-04-02T06:43:44.316Z,69.48
2024-04-02T06:46:10.617Z,68.91
2024-04-02T06:48:36.910Z,68.69
2024-04-02T06:51:03.209Z,68.42
2024-04-02T06:53:29.533Z,67.85
2024-04-02T06:55:58.813Z,67.76
2024-04-02T06:58:25.169Z,67.65
2024-04-02T07:00:51.480Z,67.65
2024-04-02T07:03:17.834Z,67.58
2024-04-02T07:05:44.170Z,67.78
2024-04-02T07:08:10.489Z,67.72
2024-04-02T07:10:36.950Z,67.67
2024-04-02T07:13:03.288Z,67.83
2024-04-02T07:15:29.615Z,68.15
2024-04-02T07:17:55.923Z,67.84
2024-04-02T07:20:22.298Z,68.37
2024-04-02T07:22:48.601Z,68.67
2024-04-02T07:25:14.968Z,68.64
2024-04-02T07:27:41.289Z,68.55
2024-04-02T07:30:07.601Z,68.60
2024-04-02T07:32:33.994Z,68.74
2024-04-02T07:35:00.380Z,68.85
2024-04-02T07:37:26.711Z,69.31
2024-04-02T07:39:53.018Z,69.13
2024-04-02T07:42:19.326Z,69.19
2024-04-02T07:44:45.639Z,69.32
2024-04-02T07:47:11.941Z,69.62
2024-04-02T07:49:38.269Z,69.35
2024-04-02T07:52:04.574Z,69.52
2024-04-02T07:54:30.913Z,69.59
2024-04-02T07:56:57.234Z,69.73
2024-04-02T07:59:23.597Z,69.61
2024-04-02T08:01:49.939Z,69.62
2024-04-02T08:04:16.236Z,69.01
2024-04-02T08:06:42.537Z,69.50
2024-04-02T08:09:08.873Z,70.02
2024-04-02T08:11:35.216Z,69.74
2024-04-02T08:14:01.563Z,69.86
2024-04-02T08:16:27.914Z,70.73
2024-04-02T08:18:54.254Z,70.42
2024-04-02T08:21:20.598Z,70.83
2024-04-02T08:23:46.901Z,70.47
2024-04-02T08:26:13.201Z,70.62
2024-04-02T08:28:39.519Z,71.41
2024-04-02T08:31:05.837Z,72.03
2024-04-02T08:33:32.135Z,72.31
2024-04-02T08:35:58.457Z,72.25
2024-04-02T08:38:24.813Z,72.37
2024-04-02T08:40:51.122Z,72.91
2024-04-02T08:43:17.441Z,72.74
2024-04-02T08:45:43.746Z,72.31
2024-04-02T08:48:10.076Z,72.04
2024-04-02T08:50:36.390Z,73.54
2024-04-02T08:53:02.704Z,73.55
2024-04-02T08:55:29.010Z,73.30
2024-04-02T08:57:55.314Z,73.11
2024-04-02T09:00:21.648Z,72.93
2024-04-02T09:02:47.970Z,72.25
2024-04-02T09:05:14.277Z,71.97
2024-04-02T09:07:40.589Z,72.02
2024-04-02T09:10:06.929Z,72.15
2024-04-02T09:12:33.297Z,72.43
2024-04-02T09:14:59.620Z,72.87
2024-04-02T09:17:26.004Z,72.77
2024-04-02T09:19:52.331Z,73.03
2024-04-02T09:22:18.635Z,73.36
2024-04-02T09:24:44.938Z,73.48
2024-04-02T09:27:11.255Z,73.07
2024-04-02T09:29:37.565Z,73.38
2024-04-02T09:32:03.917Z,73.75
2024-04-02T09:34:30.214Z,74.44
2024-04-02T09:36:56.536Z,74.37
2024-04-02T09:39:22.828Z,74.18
2024-04-02T09:42:01.303Z,74.08
2024-04-02T09:44:29.833Z,74.44
2024-04-02T09:46:56.165Z,75.20
2024-04-02T09:49:22.481Z,75.05
2024-04-02T09:51:48.783Z,75.19
2024-04-02T09:54:15.095Z,76.14
2024-04-02T09:56:41.412Z,76.62
2024-04-02T09:59:07.713Z,76.43
2024-04-02T10:01:34.022Z,76.89
2024-04-02T10:04:00.321Z,77.48
2024-04-02T10:06:26.667Z,77.90
2024-04-02T10:08:52.993Z,78.11
2024-04-02T10:11:19.346Z,78.50
2024-04-02T10:13:45.666Z,79.10
2024-04-02T10:16:11.960Z,79.49
2024-04-02T10:18:38.262Z,80.24
2024-04-02T10:21:04.567Z,81.28
2024-04-02T10:23:30.910Z,81.65
2024-04-02T10:25:57.223Z,82.80
2024-04-02T10:28:23.556Z,83.35
2024-04-02T10:30:49.894Z,83.63
2024-04-02T10:33:16.208Z,84.24
2024-04-02T10:35:42.519Z,84.92
2024-04-02T10:38:08.820Z,85.89
2024-04-02T10:40:35.149Z,86.19
2024-04-02T10:43:01.509Z,86.27
2024-04-02T10:45:27.896Z,86.40
2024-04-02T10:47:54.201Z,86.82
2024-04-02T10:50:20.517Z,87.78
2024-04-02T10:52:46.829Z,87.58
2024-04-02T10:55:13.149Z,87.13
2024-04-02T10:57:39.510Z,86.72
2024-04-02T11:00:05.836Z,86.18
2024-04-02T11:02:32.295Z,87.59
2024-04-02T11:04:58.629Z,87.24
2024-04-02T11:07:24.971Z,88.02
2024-04-02T11:09:51.300Z,88.49
2024-04-02T11:12:17.589Z,88.30
2024-04-02T11:14:43.921Z,87.79
2024-04-02T11:17:10.262Z,87.35
2024-04-02T11:19:36.582Z,86.84
2024-04-02T11:22:02.912Z,87.40
2024-04-02T11:24:29.234Z,86.98
2024-04-02T11:26:55.576Z,86.36
2024-04-02T11:29:21.874Z,86.31
2024-04-02T11:31:48.226Z,86.29
2024-04-02T11:34:14.540Z,87.41
2024-04-02T11:36:40.861Z,87.56
2024-04-02T11:39:07.187Z,88.36
2024-04-02T11:41:33.487Z,88.35
2024-04-02T11:43:59.818Z,88.45
2024-04-02T11:46:26.140Z,88.30
2024-04-02T11:48:52.443Z,89.62
2024-04-02T11:51:18.760Z,89.13
2024-04-02T11:53:45.051Z,89.94
2024-04-02T11:56:11.363Z,90.71
2024-04-02T11:58:37.675Z,90.43
2024-04-02T12:01:05.439Z,90.14
2024-04-02T12:03:32.977Z,90.34
2024-04-02T12:05:59.288Z,90.45
2024-04-02T12:08:25.586Z,90.40
2024-04-02T12:10:51.913Z,90.81
2024-04-02T12:13:18.219Z,91.10
2024-04-02T12:15:44.521Z,90.97
2024-04-02T12:18:10.868Z,90.68
2024-04-02T12:20:37.186Z,91.64
2024-04-02T12:23:03.528Z,91.88
2024-04-02T12:25:29.841Z,90.97
2024-04-02T12:27:56.166Z,91.61
2024-04-02T12:30:22.533Z,91.82
2024-04-02T12:32:48.957Z,92.66
2024-04-02T12:35:15.383Z,93.48
2024-04-02T12:37:41.698Z,93.55
2024-04-02T12:40:08.027Z,93.44
2024-04-02T12:42:34.357Z,94.54
2024-04-02T12:45:00.772Z,95.45
2024-04-02T12:47:27.088Z,95.12
2024-04-02T12:49:53.402Z,95.06
2024-04-02T12:52:19.705Z,94.79
2024-04-02T12:54:46.012Z,95.12
2024-04-02T12:57:12.340Z,95.46
2024-04-02T12:59:38.673Z,95.96
2024-04-02T13:02:05.001Z,96.52
2024-04-02T13:04:31.336Z,96.77
2024-04-02T13:06:57.660Z,96.83
2024-04-02T13:09:24.005Z,97.24
2024-04-02T13:11:50.338Z,97.02
2024-04-02T13:14:16.638Z,97.06
2024-04-02T13:16:42.980Z,97.67
2024-04-02T13:19:09.300Z,97.65
2024-04-02T13:21:35.632Z,97.16
2024-04-02T13:24:01.961Z,97.14
2024-04-02T13:26:28.277Z,97.46
2024-04-02T13:28:54.577Z,97.66
2024-04-02T13:31:20.899Z,97.71
2024-04-02T13:33:47.234Z,97.66
2024-04-02T13:36:13.563Z,97.71
2024-04-02T13:38:39.863Z,97.83
2024-04-02T13:41:06.151Z,97.77
2024-04-02T13:43:32.471Z,98.03
2024-04-02T13:45:58.784Z,98.27
2024-04-02T13:48:25.110Z,98.47
2024-04-02T13:50:51.456Z,98.50
2024-04-02T13:53:17.790Z,98.17
2024-04-02T13:55:44.145Z,98.19
2024-04-02T13:58:10.430Z,98.78
2024-04-02T14:00:36.758Z,98.83
2024-04-02T14:03:03.070Z,98.86
2024-04-02T14:05:29.374Z,98.86
2024-04-02T14:07:55.730Z,98.94
2024-04-02T14:10:22.064Z,99.31
2024-04-02T14:12:48.442Z,99.42
2024-04-02T14:15:14.768Z,99.69
2024-04-02T14:17:41.077Z,99.93
2024-04-02T14:20:07.375Z,100.00
2024-04-02T14:22:33.732Z,100.00
2024-04-02T14:25:00.035Z,99.95
2024-04-02T14:27:26.360Z,99.77
2024-04-02T14:29:52.664Z,99.97
2024-04-02T14:32:18.974Z,100.00
2024-04-02T14:34:45.285Z,100.00
2024-04-02T14:37:11.602Z,100.00
2024-04-02T14:39:37.988Z,100.00
2024-04-02T14:42:04.312Z,100.00
2024-04-02T14:44:30.657Z,100.00
2024-04-02T14:46:59.232Z,100.00
2024-04-02T14:49:27.106Z,100.00
2024-04-02T14:51:53.490Z,100.00
2024-04-02T14:54:19.798Z,100.00
2024-04-02T14:56:46.109Z,100.00
2024-04-02T14:59:12.422Z,100.00
2024-04-02T15:01:38.736Z,100.00
2024-04-02T15:05:28.054Z,100.00
2024-04-02T15:07:54.381Z,100.00
2024-04-02T15:10:20.690Z,100.00
2024-04-02T15:12:47.009Z,100.00
2024-04-02T15:15:13.326Z,100.00
2024-04-02T15:17:39.614Z,100.00
2024-04-02T15:20:05.918Z,100.00
2024-04-02T15:22:32.233Z,100.00
2024-04-02T15:24:58.535Z,100.00
2024-04-02T15:27:24.842Z,100.00
2024-04-02T15:29:51.148Z,100.00
2024-04-02T15:32:17.448Z,100.00
2024-04-02T15:34:43.771Z,100.00
2024-04-02T15:37:10.091Z,100.00
2024-04-02T15:39:36.407Z,100.00
2024-04-02T15:42:02.726Z,100.00
2024-04-02T15:44:29.055Z,100.00
2024-04-02T15:46:57.355Z,100.00
2024-04-02T15:49:24.920Z,100.00
2024-04-02T15:51:51.254Z,100.00
2024-04-02T15:54:17.586Z,100.00
2024-04-02T15:56:43.913Z,100.00
2024-04-02T15:59:10.241Z,100.00
2024-04-02T16:01:36.556Z,100.00
2024-04-02T16:04:02.855Z,100.00
2024-04-02T16:06:29.174Z,100.00
2024-04-02T16:08:55.489Z,100.00
2024-04-02T16:11:21.781Z,100.00
2024-04-02T16:13:48.097Z,100.00
2024-04-02T16:16:14.411Z,100.00
2024-04-02T16:18:40.730Z,100.00
2024-04-02T16:21:07.048Z,100.00
2024-04-02T16:23:33.333Z,100.00
2024-04-02T16:25:59.647Z,100.00
2024-04-02T16:28:25.951Z,100.00
2024-04-02T16:30:52.265Z,100.00
2024-04-02T16:33:18.603Z,100.00
2024-04-02T16:35:44.909Z,100.00
2024-04-02T16:38:11.214Z,100.00
2024-04-02T16:40:37.539Z,100.00
2024-04-02T16:43:03.875Z,100.00
2024-04-02T16:45:30.194Z,100.00
2024-04-02T16:47:56.495Z,100.00
2024-04-02T16:50:22.849Z,100.00
2024-04-02T16:52:49.218Z,100.00
2024-04-02T16:55:15.540Z,100.00
2024-04-02T16:57:41.866Z,100.00
2024-04-02T17:00:08.232Z,100.00
2024-04-02T17:02:34.556Z,100.00
2024-04-02T17:05:00.882Z,100.00
2024-04-02T17:07:27.190Z,100.00
2024-04-02T17:09:53.617Z,100.00
2024-04-02T17:12:19.950Z,100.00
2024-04-02T17:14:46.255Z,100.00
2024-04-02T17:17:12.599Z,99.95
2024-04-02T17:19:38.899Z,99.30
2024-04-02T17:22:05.246Z,98.77
2024-04-02T17:24:31.617Z,98.36
2024-04-02T17:26:57.984Z,97.77
2024-04-02T17:29:24.355Z,97.29
2024-04-02T17:31:50.689Z,97.13
2024-04-02T17:34:17.084Z,97.03
2024-04-02T17:36:43.409Z,96.69
2024-04-02T17:39:09.766Z,96.14
2024-04-02T17:41:36.325Z,95.85
2024-04-02T17:44:02.662Z,95.65
2024-04-02T17:46:28.996Z,95.39
2024-04-02T17:48:55.304Z,95.08
2024-04-02T17:51:21.615Z,94.58
2024-04-02T17:53:47.959Z,94.64
2024-04-02T17:56:14.279Z,93.51
2024-04-02T17:58:40.626Z,93.50
2024-04-02T18:01:06.960Z,93.40
2024-04-02T18:03:33.291Z,93.27
2024-04-02T18:05:59.615Z,93.34
2024-04-02T18:08:25.961Z,92.96
2024-04-02T18:10:52.311Z,92.70
2024-04-02T18:13:18.646Z,92.78
2024-04-02T18:15:44.952Z,92.52
2024-04-02T18:18:11.330Z,92.43
2024-04-02T18:20:37.655Z,92.22
2024-04-02T18:23:03.971Z,92.15
2024-04-02T18:25:30.293Z,92.21
2024-04-02T18:27:57.322Z,92.01
2024-04-02T18:30:23.826Z,91.77
2024-04-02T18:32:50.146Z,91.65
2024-04-02T18:35:16.483Z,91.52
2024-04-02T18:37:42.793Z,91.42
2024-04-02T18:40:12.634Z,91.29
2024-04-02T18:42:41.265Z,91.31
2024-04-02T18:45:07.581Z,90.98
2024-04-02T18:47:33.878Z,90.73
2024-04-02T18:50:00.222Z,90.52
2024-04-02T18:52:26.527Z,90.42
2024-04-02T18:54:52.884Z,90.41
2024-04-02T18:57:19.199Z,90.06
2024-04-02T18:59:45.562Z,90.19
2024-04-02T19:02:11.885Z,90.05
2024-04-02T19:04:38.214Z,89.93
2024-04-02T19:07:04.521Z,89.97
2024-04-02T19:09:33.171Z,89.68
2024-04-02T19:11:59.529Z,89.69
2024-04-02T19:14:25.840Z,89.43
2024-04-02T19:16:52.197Z,88.89
2024-04-02T19:19:18.559Z,88.84
2024-04-02T19:21:44.892Z,88.71
2024-04-02T19:24:11.178Z,88.63
2024-04-02T19:26:37.504Z,88.44
2024-04-02T19:29:03.830Z,88.70
2024-04-02T19:31:30.200Z,88.57
2024-04-02T19:33:56.580Z,88.42
2024-04-02T19:36:22.893Z,88.13
2024-04-02T19:38:49.239Z,88.20
2024-04-02T19:41:15.557Z,87.77
2024-04-02T19:43:41.865Z,87.68
2024-04-02T19:46:08.176Z,87.19
2024-04-02T19:48:34.491Z,86.79
2024-04-02T19:51:00.919Z,86.71
2024-04-02T19:53:27.242Z,86.69
2024-04-02T19:55:53.551Z,86.00
2024-04-02T19:58:19.912Z,85.32
2024-04-02T20:00:46.327Z,85.16
2024-04-02T20:03:12.667Z,84.31
2024-04-02T20:05:39.037Z,84.44
2024-04-02T20:08:05.349Z,84.25
2024-04-02T20:10:31.683Z,84.13
2024-04-02T20:12:58.011Z,84.65
2024-04-02T20:15:24.317Z,84.62
2024-04-02T20:17:50.672Z,84.16
2024-04-02T20:20:16.992Z,84.05
2024-04-02T20:22:43.295Z,84.09
2024-04-02T20:25:09.618Z,84.13
2024-04-02T20:27:35.921Z,84.35
2024-04-02T20:30:02.267Z,84.36
2024-04-02T20:32:28.580Z,84.05
2024-04-02T20:34:54.882Z,84.07
2024-04-02T20:37:21.219Z,84.21
2024-04-02T20:39:47.545Z,83.88
2024-04-02T20:42:13.894Z,83.99
2024-04-02T20:44:40.212Z,84.01
2024-04-02T20:47:06.785Z,83.82
2024-04-02T20:49:33.112Z,83.37
2024-04-02T20:51:59.468Z,83.70
2024-04-02T20:54:25.788Z,83.86
2024-04-02T20:56:52.097Z,83.48
2024-04-02T20:59:18.410Z,83.62
2024-04-02T21:01:44.741Z,83.20
2024-04-02T21:04:11.091Z,83.16
2024-04-02T21:06:37.403Z,82.99
2024-04-02T21:09:03.714Z,82.90
2024-04-02T21:11:30.026Z,82.72
2024-04-02T21:13:56.336Z,82.59
2024-04-02T21:16:22.645Z,82.46
2024-04-02T21:18:48.965Z,82.49
2024-04-02T21:21:15.314Z,82.44
2024-04-02T21:23:41.632Z,82.58
2024-04-02T21:26:07.953Z,82.49
2024-04-02T21:28:34.277Z,82.37
2024-04-02T21:31:00.600Z,82.00
2024-04-02T21:33:26.914Z,82.20
2024-04-02T21:35:53.256Z,81.96
2024-04-02T21:38:19.621Z,82.09
2024-04-02T21:40:45.949Z,82.31
2024-04-02T21:43:12.279Z,82.05
2024-04-02T21:45:38.593Z,81.86
2024-04-02T21:48:04.930Z,81.70
2024-04-02T21:50:31.263Z,81.78
2024-04-02T21:52:57.586Z,81.82
2024-04-02T21:55:23.896Z,81.40
2024-04-02T21:57:50.207Z,81.55
2024-04-02T22:00:16.532Z,81.54
2024-04-02T22:02:42.862Z,81.59
2024-04-02T22:05:09.186Z,81.43
2024-04-02T22:07:35.514Z,81.38
2024-04-02T22:10:01.802Z,81.46
2024-04-02T22:12:28.220Z,81.55
2024-04-02T22:14:54.527Z,81.57
2024-04-02T22:17:20.865Z,81.17
2024-04-02T22:19:47.184Z,81.49
2024-04-02T22:22:13.487Z,81.32
2024-04-02T22:24:39.792Z,81.26
2024-04-02T22:27:06.154Z,81.31
2024-04-02T22:29:32.538Z,81.60
2024-04-02T22:31:58.871Z,81.44
2024-04-02T22:34:25.207Z,81.67
2024-04-02T22:36:51.528Z,81.74
2024-04-02T22:39:17.856Z,81.73
2024-04-02T22:41:44.142Z,81.47
2024-04-02T22:44:10.461Z,81.39
2024-04-02T22:46:36.749Z,81.60
2024-04-02T22:49:03.073Z,81.19
2024-04-02T22:51:29.385Z,81.58
2024-04-02T22:53:55.674Z,81.34
2024-04-02T22:56:22.015Z,81.10
2024-04-02T22:58:48.346Z,81.13
2024-04-02T23:01:14.665Z,80.95
2024-04-02T23:03:40.982Z,81.10
2024-04-02T23:06:07.286Z,80.84
2024-04-02T23:08:33.612Z,80.75
2024-04-02T23:10:59.927Z,80.34
2024-04-02T23:13:26.245Z,80.36
2024-04-02T23:15:52.611Z,80.40
2024-04-02T23:18:18.954Z,80.24
2024-04-02T23:20:45.268Z,80.05
2024-04-02T23:23:11.589Z,80.08
2024-04-02T23:25:37.882Z,80.04
2024-04-02T23:28:04.232Z,79.75
2024-04-02T23:30:30.548Z,79.69
2024-04-02T23:32:56.855Z,79.69
2024-04-02T23:35:23.161Z,79.46
2024-04-02T23:37:49.479Z,79.63
2024-04-02T23:40:15.794Z,79.72
2024-04-02T23:42:42.123Z,79.78
2024-04-02T23:45:08.439Z,79.72
2024-04-02T23:47:34.853Z,79.71
2024-04-02T23:50:01.238Z,79.51
2024-04-02T23:52:27.572Z,79.72
2024-04-02T23:54:53.928Z,79.68
2024-04-02T23:57:20.228Z,79.47
2024-04-02T23:59:46.534Z,79.47
